Updated03/06/2020 09:00 
 

GeoURL
free counters
Scottish Weather Network UK Weather Network Cumulus Top Weather Sites

Peebles Weather - Nearby METAR Reports

Raw Data, Raw Data Expanded

Ignore low humidity and Dew Point values. Something wrong with the sensor.
Daytime temperatures are in direct sunlight so may be higher than official air temperature values.
As with any other website, we log your IP address and browser type in the server logs for diagnostic reasons. Cookies are used to record visit time and gauges preferences. No personal information is stored or processed.

All times are in local time (GMT, or BST in summer) unless specified.

2020/06/03 07:50 EGPH 030750Z 04005KT 9999 BKN019 10/06 Q1017
9.7°C 0.0 mm 8.4 mm 13.5 mm 2.1 mph 4.5 mph 1011.8 hPa 75% X-Ray Solar Flare Level
Planetary K-Index
Planetary K-Index History
Station Warn Rain Snow Flood Wind Ltng Heat Cold Glob Moon Temp Rain 1h Rain Wed Rain 24h Wind 10m Gust Pressure Hum Proton Levels
Lost sensor contact!!!
m Waxing Gibbous Cool F1-N F: A: Kp:0 SSN:0

METAR Reports

 

EGPH - Edinburgh Airpor, United Kingdom
Distance from station: NNW 22mi, 36km
Updated: 03/06/2020 08:50
Mostly cloudy
Mostly cloudy
 Wind from NE
Wind: NE 6 mph , 9 km/h
Temperature: 10°C
Wind Chill: 9°C
Dew Point: 6°C
Humidity: 76%
Barometer: 1017 hPa
Clouds: Mostly cloudy
Visibility: 6 miles , 10 km
Cloud details: Mostly cloudy 579 m
2020/06/03 07:50 EGPH 030750Z 04005KT 9999 BKN019 10/06 Q1017
EGOM - Spadeadam, United Kingdom
Distance from station: SSE 49mi, 79km
Updated: 03/06/2020 07:50
Mostly cloudy
Mostly cloudy
 Wind from NNE
Wind: NNE 15 mph , 24 km/h
Temperature: 8°C
Wind Chill: 4°C
Dew Point: 7°C
Humidity: 93%
Barometer: 1013 hPa
Clouds: Mostly cloudy
Visibility: 6 miles , 10 km
Cloud details: Mostly cloudy 244 m
Partly cloudy 457 m
Mostly cloudy 1829 m
2020/06/03 06:50 EGOM 030650Z AUTO 03013KT 9999 BKN008/// SCT015/// BKN060/// 08/07 Q1013 RERA
 
EGNC - Carlisle, United Kingdom
Distance from station: SSE 51mi, 82km
Updated: 27/03/2020 14:50
NOT Current
Mostly cloudy
Mostly cloudy
 Wind from ENE
Wind: ENE 9 mph , 15 km/h
Temperature: 11°C
Dew Point: 4°C
Humidity: 62%
Barometer: 1029 hPa
Clouds: Mostly cloudy
Visibility: 6 miles , 9 km
Cloud details: Few Clouds 1067 m
Mostly cloudy 1372 m
2020/03/27 14:50 EGNC 271450Z 07008KT 050V110 9000 FEW035 BKN045 11/04 Q1029
EGPF - Glasgow Airport, United Kingdom
Distance from station: WNW 51mi, 82km
Updated: 03/06/2020 08:50
Mostly cloudy
Mostly cloudy
 Wind from NE
Wind: NE 8 mph , 13 km/h
Temperature: 12°C
Dew Point: 5°C
Humidity: 63%
Barometer: 1017 hPa
Clouds: Mostly cloudy
Visibility: 6 miles , 10 km
Cloud details: Mostly cloudy 1006 m
2020/06/03 07:50 EGPF 030750Z AUTO 05007KT 010V080 9999 BKN033 12/05 Q1017
 
EGQL - Leuchars Raf, United Kingdom
Distance from station: NNE 53mi, 85km
Updated: 03/06/2020 08:50
Mostly cloudy
Mostly cloudy
 Wind from NNE
Wind: NNE 13 mph , 20 km/h
Temperature: 11°C
Dew Point: 5°C
Humidity: 67%
Barometer: 1016 hPa
Clouds: Mostly cloudy
Visibility: 6 miles , 10 km
Cloud details: Few Clouds 732 m
Mostly cloudy 1006 m
2020/06/03 07:50 EGQL 030750Z 03011KT 9999 FEW024 BKN033 11/05 Q1016 RMK BLU
EGPK - Prestwick(Civ/Na, United Kingdom
Distance from station: W 55mi, 89km
Updated: 03/06/2020 08:50
Partly cloudy
Partly cloudy
 Wind from ENE
Wind: ENE 13 mph , 20 km/h
Temperature: 12°C
Dew Point: 5°C
Humidity: 63%
Barometer: 1017 hPa
Clouds: Partly cloudy
Visibility: 6 miles , 10 km
Cloud details: Few Clouds 427 m
Partly cloudy 610 m
2020/06/03 07:50 EGPK 030750Z 06011KT 9999 FEW014 SCT020 12/05 Q1017
 
EGPN - Dundee/Riverside, United Kingdom
Distance from station: N 56mi, 90km
Updated: 03/06/2020 08:50
Partly cloudy
Partly cloudy
 Wind from N
Wind: N 6 mph , 9 km/h
Temperature: 11°C
Dew Point: 6°C
Humidity: 72%
Barometer: 1017 hPa
Clouds: Partly cloudy
Visibility: 6 miles , 10 km
Cloud details: Partly cloudy 1067 m
2020/06/03 07:50 EGPN 030750Z 01005KT 320V050 9999 SCT035 11/06 Q1017
EGNT - Newcastle, United Kingdom
Distance from station: SE 72mi, 116km
Updated: 03/06/2020 08:50
Light rain, Overcast
Light rain, Overcast
 Wind from N
Wind: N 16 mph , 26 km/h
Temperature: 9°C
Wind Chill: 6°C
Dew Point: 8°C
Humidity: 94%
Barometer: 1014 hPa
Summary: Light rain
Clouds: Overcast
Visibility: 2 miles , 4 km
Cloud details: Overcast 213 m
2020/06/03 07:50 EGNT 030750Z 01014KT 4000 -RA OVC007 09/08 Q1014
 
EGNV - Tees-Side, United Kingdom
Distance from station: SE 104mi, 168km
Updated: 03/06/2020 08:50
Mostly cloudy
Mostly cloudy
 Wind from N
Wind: N 20 mph , 31 km/h
Temperature: 10°C
Wind Chill: 7°C
Dew Point: 9°C
Humidity: 94%
Barometer: 1013 hPa
Clouds: Mostly cloudy
Visibility: 4 miles , 7 km
Cloud details: Few Clouds 244 m
Mostly cloudy 396 m
2020/06/03 07:50 EGNV 030750Z 36017KT 7000 FEW008 BKN013 10/09 Q1013
EGPD - Aberdeen/Dyce, United Kingdom
Distance from station: NNE 114mi, 183km
Updated: 03/06/2020 08:50
Overcast
Overcast
 Wind from NNW
Wind: NNW 16 mph , 26 km/h
Temperature: 8°C
Wind Chill: 4°C
Dew Point: 5°C
Humidity: 82%
Barometer: 1016 hPa
Clouds: Overcast
Visibility: 6 miles , 10 km
Cloud details: Mostly cloudy 549 m
Mostly cloudy 701 m
Overcast 1006 m
2020/06/03 07:50 EGPD 030750Z AUTO 33014KT 9999 BKN018 BKN023 OVC033 08/05 Q1016 NOSIG
 
EGNS - Isle Of Man/Rona, United Kingdom
Distance from station: SSW 122mi, 197km
Updated: 03/06/2020 08:50
Few Clouds
Few Clouds
 Wind from NE
Wind: NE 26 mph , 43 km/h
Temperature: 11°C
Dew Point: 7°C
Humidity: 77%
Barometer: 1013 hPa
Clouds: Few Clouds
Visibility: 6 miles , 10 km
Cloud details: Few Clouds 457 m
2020/06/03 07:50 EGNS 030750Z 04023KT 9999 FEW015 11/07 Q1013 NOSIG
EGAC - Belfast Harbour, United Kingdom
Distance from station: WSW 128mi, 206km
Updated: 03/06/2020 08:50
Overcast
Overcast
 Wind from NNE
Wind: NNE 18 mph , 30 km/h
Temperature: 11°C
Dew Point: 7°C
Humidity: 77%
Barometer: 1016 hPa
Clouds: Overcast
Visibility: 6 miles , 10 km
Cloud details: Mostly cloudy 518 m
Overcast 1128 m
2020/06/03 07:50 EGAC 030750Z AUTO 03016KT 9999 BKN017/// OVC037/// 11/07 Q1016
 
EGPE - Inverness/Dalcro, United Kingdom
Distance from station: NNW 134mi, 215km
Updated: 03/06/2020 08:50
Mostly cloudy
Mostly cloudy
 Wind from N
Wind: N 10 mph , 17 km/h
Temperature: 11°C
Dew Point: 5°C
Humidity: 67%
Barometer: 1019 hPa
Clouds: Mostly cloudy
Visibility: 6 miles , 10 km
Cloud details: Few Clouds 457 m
Partly cloudy 975 m
Mostly cloudy 1463 m
2020/06/03 07:50 EGPE 030750Z 36009KT 320V030 9999 FEW015 SCT032 BKN048 11/05 Q1019
XHTML 1.1 | CSS